createdAt,value
2024-01-24T00:02:18.735Z,1.65
2024-01-24T00:04:45.384Z,1.70
2024-01-24T00:07:15.970Z,3.10
2024-01-24T00:09:43.659Z,2.00
2024-01-24T00:12:11.392Z,2.10
2024-01-24T00:14:37.911Z,1.77
2024-01-24T00:17:04.523Z,1.70
2024-01-24T00:19:31.276Z,1.90
2024-01-24T00:21:58.145Z,1.60
2024-01-24T00:24:24.649Z,2.40
2024-01-24T00:26:51.187Z,2.15
2024-01-24T00:29:17.724Z,1.80
2024-01-24T00:31:44.362Z,1.60
2024-01-24T00:34:10.977Z,1.83
2024-01-24T00:36:37.755Z,1.55
2024-01-24T00:39:04.745Z,2.15
2024-01-24T00:41:31.243Z,2.63
2024-01-24T00:44:03.965Z,2.63
2024-01-24T00:46:30.436Z,2.78
2024-01-24T00:48:57.045Z,2.08
2024-01-24T00:51:24.001Z,1.63
2024-01-24T00:53:55.086Z,2.00
2024-01-24T00:56:21.820Z,1.67
2024-01-24T00:58:54.367Z,1.50
2024-01-24T01:01:23.051Z,2.20
2024-01-24T01:03:58.600Z,2.55
2024-01-24T01:06:30.436Z,2.15
2024-01-24T01:11:23.491Z,1.90
2024-01-24T01:13:49.955Z,2.03
2024-01-24T01:16:17.534Z,1.70
2024-01-24T01:18:56.266Z,1.90
2024-01-24T01:21:22.835Z,1.63
2024-01-24T01:23:50.350Z,1.60
2024-01-24T01:26:16.902Z,1.70
2024-01-24T01:28:43.378Z,2.05
2024-01-24T01:31:10.058Z,1.85
2024-01-24T01:33:37.875Z,1.73
2024-01-24T01:36:14.222Z,1.40
2024-01-24T01:38:49.110Z,2.22
2024-01-24T01:41:15.688Z,1.45
2024-01-24T01:43:42.207Z,1.35
2024-01-24T01:46:21.574Z,1.55
2024-01-24T01:48:50.671Z,1.90
2024-01-24T01:51:23.803Z,1.30
2024-01-24T01:53:50.647Z,1.30
2024-01-24T01:56:21.036Z,2.05
2024-01-24T01:58:50.563Z,2.10
2024-01-24T02:01:20.474Z,1.33
2024-01-24T02:03:47.585Z,2.35
2024-01-24T02:06:15.367Z,1.35
2024-01-24T02:08:44.345Z,1.38
2024-01-24T02:11:11.641Z,1.60
2024-01-24T02:13:39.303Z,2.05
2024-01-24T02:16:06.339Z,1.45
2024-01-24T02:18:33.537Z,1.40
2024-01-24T02:21:00.976Z,1.50
2024-01-24T02:23:27.886Z,1.30
2024-01-24T02:25:54.819Z,1.25
2024-01-24T02:28:22.382Z,1.55
2024-01-24T02:30:49.011Z,1.50
2024-01-24T02:33:15.919Z,1.23
2024-01-24T02:35:42.623Z,1.40
2024-01-24T02:38:09.230Z,1.38
2024-01-24T02:40:35.763Z,1.60
2024-01-24T02:43:02.299Z,1.20
2024-01-24T02:45:28.875Z,1.40
2024-01-24T02:47:55.555Z,1.23
2024-01-24T02:50:22.135Z,1.13
2024-01-24T02:52:48.650Z,1.10
2024-01-24T02:55:18.409Z,1.20
2024-01-24T02:57:46.675Z,1.50
2024-01-24T03:00:16.956Z,1.60
2024-01-24T03:02:43.817Z,1.27
2024-01-24T03:05:10.995Z,1.70
2024-01-24T03:07:38.006Z,1.50
2024-01-24T03:10:05.685Z,1.40
2024-01-24T03:12:33.278Z,1.02
2024-01-24T03:15:00.965Z,1.05
2024-01-24T03:17:27.473Z,1.45
2024-01-24T03:19:54.087Z,1.40
2024-01-24T03:22:21.304Z,1.42
2024-01-24T03:24:48.817Z,0.90
2024-01-24T03:27:16.449Z,1.13
2024-01-24T03:29:43.781Z,1.20
2024-01-24T03:32:10.910Z,1.20
2024-01-24T03:34:38.576Z,1.02
2024-01-24T03:37:05.399Z,1.10
2024-01-24T03:39:31.917Z,1.15
2024-01-24T03:41:58.498Z,1.85
2024-01-24T03:44:25.536Z,1.20
2024-01-24T03:46:54.013Z,1.10
2024-01-24T03:49:22.783Z,1.42
2024-01-24T03:51:49.569Z,1.35
2024-01-24T03:54:16.566Z,1.13
2024-01-24T03:56:44.560Z,1.10
2024-01-24T03:59:11.596Z,1.30
2024-01-24T04:01:38.247Z,1.00
2024-01-24T04:04:05.622Z,1.23
2024-01-24T04:06:32.473Z,1.00
2024-01-24T04:08:59.004Z,1.08
2024-01-24T04:11:25.482Z,1.08
2024-01-24T04:13:57.740Z,1.02
2024-01-24T04:16:25.405Z,0.95
2024-01-24T04:18:53.642Z,1.00
2024-01-24T04:21:21.026Z,0.88
2024-01-24T04:23:47.574Z,0.85
2024-01-24T04:26:14.065Z,1.05
2024-01-24T04:28:40.545Z,1.00
2024-01-24T04:31:08.357Z,1.20
2024-01-24T04:33:36.481Z,0.90
2024-01-24T04:36:03.407Z,1.08
2024-01-24T04:38:29.938Z,1.17
2024-01-24T04:40:56.461Z,1.20
2024-01-24T04:43:23.078Z,1.40
2024-01-24T04:45:50.076Z,1.83
2024-01-24T04:48:16.762Z,2.88
2024-01-24T04:50:43.466Z,1.60
2024-01-24T04:53:11.032Z,1.48
2024-01-24T04:55:38.040Z,1.40
2024-01-24T04:58:05.644Z,1.55
2024-01-24T05:00:32.297Z,1.20
2024-01-24T05:02:58.912Z,1.30
2024-01-24T05:05:25.397Z,1.38
2024-01-24T05:07:51.900Z,1.27
2024-01-24T05:10:18.471Z,1.33
2024-01-24T05:12:44.978Z,1.27
2024-01-24T05:15:14.491Z,1.20
2024-01-24T05:17:43.192Z,1.60
2024-01-24T05:20:11.906Z,1.45
2024-01-24T05:22:38.835Z,1.25
2024-01-24T05:25:06.289Z,1.63
2024-01-24T05:27:33.028Z,1.42
2024-01-24T05:30:00.878Z,1.35
2024-01-24T05:32:32.772Z,1.65
2024-01-24T05:34:59.322Z,1.30
2024-01-24T05:37:25.893Z,1.92
2024-01-24T05:39:52.446Z,1.10
2024-01-24T05:42:18.974Z,1.42
2024-01-24T05:44:45.474Z,1.63
2024-01-24T05:47:12.099Z,1.33
2024-01-24T05:49:39.645Z,1.27
2024-01-24T05:52:06.845Z,1.30
2024-01-24T05:54:33.947Z,1.17
2024-01-24T05:57:01.152Z,1.13
2024-01-24T05:59:27.734Z,1.40
2024-01-24T06:01:54.308Z,1.20
2024-01-24T06:04:20.929Z,1.30
2024-01-24T06:06:47.598Z,1.30
2024-01-24T06:09:14.174Z,1.35
2024-01-24T06:11:40.699Z,1.27
2024-01-24T06:14:07.242Z,1.30
2024-01-24T06:16:33.782Z,1.50
2024-01-24T06:19:00.439Z,1.17
2024-01-24T06:21:27.023Z,1.45
2024-01-24T06:23:53.500Z,1.30
2024-01-24T06:26:20.012Z,1.00
2024-01-24T06:28:47.736Z,1.60
2024-01-24T06:31:15.950Z,1.38
2024-01-24T06:33:42.578Z,1.33
2024-01-24T06:36:10.076Z,1.42
2024-01-24T06:38:36.618Z,1.20
2024-01-24T06:41:03.258Z,1.25
2024-01-24T06:43:30.415Z,1.42
2024-01-24T06:45:57.164Z,1.00
2024-01-24T06:48:23.890Z,1.10
2024-01-24T06:50:50.514Z,1.10
2024-01-24T06:53:17.047Z,1.00
2024-01-24T06:55:45.185Z,0.90
2024-01-24T06:58:11.864Z,1.23
2024-01-24T07:00:38.521Z,1.15
2024-01-24T07:03:05.690Z,1.10
2024-01-24T07:05:32.201Z,1.40
2024-01-24T07:07:59.056Z,1.20
2024-01-24T07:10:25.623Z,1.23
2024-01-24T07:12:52.651Z,1.23
2024-01-24T07:15:19.731Z,1.10
2024-01-24T07:17:46.652Z,0.95
2024-01-24T07:20:14.300Z,1.27
2024-01-24T07:22:40.843Z,1.10
2024-01-24T07:25:09.717Z,0.90
2024-01-24T07:27:38.456Z,1.00
2024-01-24T07:30:05.689Z,1.10
2024-01-24T07:32:32.753Z,1.10
2024-01-24T07:35:02.804Z,1.10
2024-01-24T07:37:31.628Z,1.20
2024-01-24T07:40:04.484Z,0.95
2024-01-24T07:42:32.257Z,1.20
2024-01-24T07:45:00.838Z,1.33
2024-01-24T07:47:27.991Z,1.48
2024-01-24T07:49:56.740Z,1.25
2024-01-24T07:52:32.197Z,1.27
2024-01-24T07:55:17.532Z,1.25
2024-01-24T07:57:44.448Z,1.50
2024-01-24T08:00:18.413Z,1.30
2024-01-24T08:02:46.059Z,1.10
2024-01-24T08:05:14.082Z,1.30
2024-01-24T08:07:42.365Z,1.13
2024-01-24T08:10:13.164Z,1.20
2024-01-24T08:12:40.878Z,0.90
2024-01-24T08:15:08.204Z,1.20
2024-01-24T08:17:38.027Z,1.30
2024-01-24T08:20:10.747Z,1.38
2024-01-24T08:22:38.817Z,1.10
2024-01-24T08:25:05.908Z,1.63
2024-01-24T08:27:32.625Z,1.38
2024-01-24T08:30:00.622Z,1.77
2024-01-24T08:32:27.349Z,1.10
2024-01-24T08:34:54.231Z,1.33
2024-01-24T08:37:21.841Z,1.13
2024-01-24T08:39:48.564Z,1.40
2024-01-24T08:42:15.086Z,1.33
2024-01-24T08:44:41.616Z,1.10
2024-01-24T08:47:08.134Z,1.00
2024-01-24T08:49:34.795Z,1.40
2024-01-24T08:52:03.470Z,1.27
2024-01-24T08:54:30.617Z,1.65
2024-01-24T08:56:57.759Z,0.90
2024-01-24T08:59:26.428Z,0.80
2024-01-24T09:01:56.509Z,1.00
2024-01-24T09:04:23.261Z,1.30
2024-01-24T09:06:50.204Z,0.90
2024-01-24T09:09:17.369Z,0.90
2024-01-24T09:11:50.797Z,1.00
2024-01-24T09:14:24.557Z,1.08
2024-01-24T09:16:51.194Z,1.00
2024-01-24T09:19:21.479Z,0.98
2024-01-24T09:21:48.272Z,1.10
2024-01-24T09:24:15.247Z,0.70
2024-01-24T09:26:42.003Z,0.70
2024-01-24T09:29:13.139Z,0.60
2024-01-24T09:31:44.647Z,0.90
2024-01-24T09:36:38.917Z,0.80
2024-01-24T09:39:05.441Z,0.88
2024-01-24T09:41:41.045Z,0.80
2024-01-24T09:44:10.218Z,0.60
2024-01-24T09:46:46.176Z,0.70
2024-01-24T09:49:13.069Z,0.70
2024-01-24T09:51:41.100Z,0.82
2024-01-24T09:54:08.593Z,0.50
2024-01-24T09:56:44.429Z,0.80
2024-01-24T09:59:12.781Z,0.75
2024-01-24T10:01:40.603Z,0.52
2024-01-24T10:04:08.676Z,0.60
2024-01-24T10:06:41.236Z,0.60
2024-01-24T10:09:09.121Z,0.60
2024-01-24T10:11:36.040Z,0.50
2024-01-24T10:14:02.827Z,0.50
2024-01-24T10:16:29.374Z,0.60
2024-01-24T10:18:58.442Z,0.50
2024-01-24T10:21:26.926Z,0.40
2024-01-24T10:23:57.116Z,0.40
2024-01-24T10:26:24.001Z,0.60
2024-01-24T10:28:56.746Z,0.60
2024-01-24T10:31:25.047Z,0.40
2024-01-24T10:33:58.869Z,0.40
2024-01-24T10:36:32.702Z,0.50
2024-01-24T10:39:04.821Z,0.50
2024-01-24T10:41:33.470Z,0.40
2024-01-24T10:44:10.721Z,0.70
2024-01-24T10:46:53.361Z,0.52
2024-01-24T10:49:22.733Z,0.40
2024-01-24T10:51:52.151Z,0.40
2024-01-24T10:54:20.808Z,0.40
2024-01-24T10:56:51.232Z,0.35
2024-01-24T10:59:19.003Z,0.43
2024-01-24T11:01:46.393Z,0.40
2024-01-24T11:04:20.405Z,0.47
2024-01-24T11:07:02.984Z,0.60
2024-01-24T11:09:54.441Z,0.60
2024-01-24T11:12:22.650Z,0.50
2024-01-24T11:14:49.988Z,0.35
2024-01-24T11:17:17.282Z,0.40
2024-01-24T11:19:47.977Z,0.35
2024-01-24T11:22:30.153Z,0.30
2024-01-24T11:25:02.801Z,0.30
2024-01-24T11:27:37.206Z,0.30
2024-01-24T11:30:36.897Z,0.50
2024-01-24T11:33:05.912Z,0.38
2024-01-24T11:35:37.210Z,0.40
2024-01-24T11:38:27.611Z,0.50
2024-01-24T11:41:02.979Z,0.40
2024-01-24T11:43:35.176Z,0.60
2024-01-24T11:46:07.008Z,0.40
2024-01-24T11:48:36.384Z,0.50
2024-01-24T11:51:03.594Z,0.63
2024-01-24T11:53:30.648Z,0.50
2024-01-24T11:56:05.754Z,0.47
2024-01-24T11:58:33.021Z,0.38
2024-01-24T12:01:04.555Z,0.50
2024-01-24T12:05:58.995Z,0.73
2024-01-24T12:08:26.218Z,0.60
2024-01-24T12:10:52.891Z,0.57
2024-01-24T12:13:22.989Z,0.70
2024-01-24T12:15:52.238Z,0.60
2024-01-24T12:18:20.683Z,0.63
2024-01-24T12:20:49.463Z,0.57
2024-01-24T12:23:17.677Z,0.50
2024-01-24T12:25:48.150Z,0.60
2024-01-24T12:28:15.572Z,0.60
2024-01-24T12:33:18.642Z,0.60
2024-01-24T12:35:47.815Z,0.68
2024-01-24T12:38:15.668Z,0.55
2024-01-24T12:40:51.823Z,0.52
2024-01-24T12:43:22.756Z,0.60
2024-01-24T12:45:51.662Z,0.50
2024-01-24T12:48:19.867Z,0.50
2024-01-24T12:50:49.780Z,0.60
2024-01-24T12:53:17.181Z,0.60
2024-01-24T12:55:43.734Z,0.70
2024-01-24T12:58:11.027Z,0.93
2024-01-24T13:00:37.874Z,0.80
2024-01-24T13:03:06.484Z,0.80
2024-01-24T13:05:42.819Z,0.90
2024-01-24T13:08:14.888Z,1.17
2024-01-24T13:10:45.286Z,1.30
2024-01-24T13:13:12.827Z,1.83
2024-01-24T13:15:40.507Z,1.17
2024-01-24T13:18:09.167Z,1.50
2024-01-24T13:20:39.011Z,1.00
2024-01-24T13:23:09.697Z,1.13
2024-01-24T13:25:36.271Z,1.10
2024-01-24T13:28:04.003Z,1.30
2024-01-24T13:30:30.992Z,1.50
2024-01-24T13:32:58.785Z,1.25
2024-01-24T13:35:25.678Z,1.80
2024-01-24T13:37:53.228Z,1.40
2024-01-24T13:40:20.028Z,1.48
2024-01-24T13:42:46.785Z,1.10
2024-01-24T13:45:13.400Z,1.45
2024-01-24T13:47:39.946Z,1.80
2024-01-24T13:50:07.613Z,1.48
2024-01-24T13:52:34.755Z,1.38
2024-01-24T13:55:01.470Z,1.45
2024-01-24T13:57:28.184Z,2.38
2024-01-24T13:59:56.283Z,1.40
2024-01-24T14:02:23.060Z,1.45
2024-01-24T14:04:50.976Z,1.50
2024-01-24T14:07:17.871Z,1.70
2024-01-24T14:09:45.568Z,1.25
2024-01-24T14:12:12.434Z,1.40
2024-01-24T14:14:40.140Z,1.35
2024-01-24T14:17:14.798Z,1.67
2024-01-24T14:20:23.319Z,1.75
2024-01-24T14:22:50.105Z,1.50
2024-01-24T14:25:16.858Z,2.15
2024-01-24T14:27:44.360Z,1.30
2024-01-24T14:30:11.689Z,1.60
2024-01-24T14:32:39.666Z,1.20
2024-01-24T14:35:07.552Z,1.48
2024-01-24T14:37:40.919Z,1.63
2024-01-24T14:40:08.367Z,1.27
2024-01-24T14:42:36.659Z,1.50
2024-01-24T14:45:03.788Z,1.88
2024-01-24T14:47:37.364Z,1.67
2024-01-24T14:50:04.831Z,1.50
2024-01-24T14:52:31.414Z,2.00
2024-01-24T14:54:58.038Z,1.95
2024-01-24T14:57:24.791Z,1.88
2024-01-24T14:59:51.543Z,1.98
2024-01-24T15:02:18.022Z,1.70
2024-01-24T15:04:44.939Z,1.50
2024-01-24T15:07:12.936Z,1.45
2024-01-24T15:09:40.575Z,1.88
2024-01-24T15:12:07.334Z,2.15
2024-01-24T15:14:33.912Z,2.00
2024-01-24T15:17:02.482Z,1.83
2024-01-24T15:19:31.174Z,1.95
2024-01-24T15:21:58.623Z,1.83
2024-01-24T15:24:25.535Z,1.50
2024-01-24T15:26:58.884Z,1.80
2024-01-24T15:29:25.848Z,2.17
2024-01-24T15:31:52.415Z,1.92
2024-01-24T15:34:20.469Z,1.88
2024-01-24T15:36:48.377Z,1.90
2024-01-24T15:39:17.124Z,2.38
2024-01-24T15:41:47.701Z,2.00
2024-01-24T15:44:14.340Z,2.22
2024-01-24T15:46:41.483Z,1.80
2024-01-24T15:49:10.445Z,1.98
2024-01-24T15:51:38.125Z,2.15
2024-01-24T15:54:04.692Z,2.10
2024-01-24T15:56:31.440Z,2.25
2024-01-24T15:58:59.391Z,1.70
2024-01-24T16:01:27.888Z,2.17
2024-01-24T16:03:56.315Z,1.70
2024-01-24T16:06:25.549Z,2.10
2024-01-24T16:08:52.557Z,2.10
2024-01-24T16:11:19.577Z,2.15
2024-01-24T16:13:46.246Z,2.10
2024-01-24T16:16:16.261Z,2.38
2024-01-24T16:18:44.477Z,2.38
2024-01-24T16:21:11.304Z,2.58
2024-01-24T16:23:37.822Z,2.10
2024-01-24T16:26:04.641Z,2.28
2024-01-24T16:28:33.136Z,2.72
2024-01-24T16:31:00.319Z,2.13
2024-01-24T16:33:28.112Z,2.30
2024-01-24T16:35:54.868Z,2.00
2024-01-24T16:38:21.415Z,1.90
2024-01-24T16:40:48.000Z,2.67
2024-01-24T16:43:14.855Z,2.35
2024-01-24T16:45:41.522Z,1.70
2024-01-24T16:48:08.479Z,1.90
2024-01-24T16:50:37.189Z,2.30
2024-01-24T16:53:03.806Z,2.00
2024-01-24T16:55:33.520Z,1.90
2024-01-24T16:58:00.256Z,1.83
2024-01-24T17:00:26.800Z,2.05
2024-01-24T17:02:58.382Z,1.83
2024-01-24T17:05:29.727Z,1.60
2024-01-24T17:07:56.534Z,2.40
2024-01-24T17:10:23.073Z,1.95
2024-01-24T17:12:51.236Z,2.90
2024-01-24T17:15:18.033Z,3.55
2024-01-24T17:17:45.929Z,2.60
2024-01-24T17:20:12.802Z,2.88
2024-01-24T17:22:39.340Z,2.42
2024-01-24T17:25:08.607Z,2.65
2024-01-24T17:27:35.767Z,2.40
2024-01-24T17:30:02.708Z,2.75
2024-01-24T17:32:35.345Z,2.25
2024-01-24T17:35:03.119Z,2.53
2024-01-24T17:37:30.650Z,2.30
2024-01-24T17:40:08.497Z,2.42
2024-01-24T17:42:35.378Z,2.45
2024-01-24T17:45:01.942Z,2.25
2024-01-24T17:47:31.312Z,2.50
2024-01-24T17:49:58.979Z,2.58
2024-01-24T17:52:26.521Z,2.65
2024-01-24T17:54:53.295Z,3.38
2024-01-24T17:57:19.904Z,2.65
2024-01-24T17:59:46.463Z,2.42
2024-01-24T18:02:13.153Z,2.33
2024-01-24T18:04:41.826Z,2.58
2024-01-24T18:07:08.532Z,2.10
2024-01-24T18:09:35.100Z,2.47
2024-01-24T18:12:01.767Z,2.47
2024-01-24T18:14:28.238Z,3.15
2024-01-24T18:16:54.728Z,2.88
2024-01-24T18:19:21.331Z,3.28
2024-01-24T18:21:53.880Z,2.50
2024-01-24T18:24:21.411Z,2.65
2024-01-24T18:26:47.935Z,2.30
2024-01-24T18:29:16.749Z,2.60
2024-01-24T18:31:43.974Z,2.58
2024-01-24T18:34:10.679Z,2.42
2024-01-24T18:36:37.786Z,3.30
2024-01-24T18:39:04.629Z,3.42
2024-01-24T18:41:31.708Z,2.88
2024-01-24T18:43:58.264Z,2.45
2024-01-24T18:46:26.528Z,4.32
2024-01-24T18:48:53.494Z,3.00
2024-01-24T18:51:20.891Z,2.70
2024-01-24T18:53:47.496Z,2.92
2024-01-24T18:56:16.341Z,3.05
2024-01-24T18:58:43.866Z,3.38
2024-01-24T19:01:11.113Z,2.50
2024-01-24T19:03:42.638Z,2.78
2024-01-24T19:06:12.280Z,2.83
2024-01-24T19:08:42.988Z,2.55
2024-01-24T19:11:21.626Z,2.80
2024-01-24T19:13:48.227Z,2.65
2024-01-24T19:16:14.922Z,2.30
2024-01-24T19:18:45.971Z,2.83
2024-01-24T19:21:13.580Z,3.10
2024-01-24T19:23:40.102Z,2.58
2024-01-24T19:26:06.613Z,2.60
2024-01-24T19:28:36.887Z,2.50
2024-01-24T19:31:05.067Z,1.83
2024-01-24T19:33:31.771Z,2.85
2024-01-24T19:35:59.382Z,2.97
2024-01-24T19:38:28.978Z,2.38
2024-01-24T19:40:55.533Z,2.63
2024-01-24T19:43:22.199Z,3.15
2024-01-24T19:45:48.854Z,2.40
2024-01-24T19:48:22.824Z,2.58
2024-01-24T19:50:49.420Z,2.25
2024-01-24T19:53:20.846Z,3.53
2024-01-24T19:55:51.521Z,3.15
2024-01-24T19:58:20.399Z,3.08
2024-01-24T20:00:48.024Z,2.63
2024-01-24T20:03:14.518Z,2.50
2024-01-24T20:05:41.078Z,2.55
2024-01-24T20:08:07.802Z,2.55
2024-01-24T20:10:34.533Z,2.78
2024-01-24T20:13:01.056Z,2.30
2024-01-24T20:15:34.587Z,2.88
2024-01-24T20:18:01.242Z,2.50
2024-01-24T20:20:29.853Z,2.92
2024-01-24T20:22:56.465Z,2.58
2024-01-24T20:25:23.026Z,2.42
2024-01-24T20:27:51.065Z,2.30
2024-01-24T20:30:21.989Z,2.97
2024-01-24T20:32:57.417Z,2.80
2024-01-24T20:35:33.378Z,2.22
2024-01-24T20:38:01.896Z,2.70
2024-01-24T20:40:28.449Z,3.10
2024-01-24T20:42:55.353Z,2.25
2024-01-24T20:45:21.914Z,3.17
2024-01-24T20:47:50.524Z,2.50
2024-01-24T20:50:21.644Z,3.47
2024-01-24T20:52:51.088Z,3.10
2024-01-24T20:55:17.934Z,3.05
2024-01-24T20:57:45.608Z,2.00
2024-01-24T21:00:12.834Z,2.63
2024-01-24T21:02:39.497Z,2.38
2024-01-24T21:05:06.836Z,2.65
2024-01-24T21:07:33.766Z,2.33
2024-01-24T21:10:00.447Z,2.47
2024-01-24T21:12:26.954Z,2.35
2024-01-24T21:14:57.629Z,2.55
2024-01-24T21:17:25.197Z,3.22
2024-01-24T21:19:51.869Z,3.90
2024-01-24T21:22:18.586Z,3.22
2024-01-24T21:24:47.290Z,2.70
2024-01-24T21:27:13.845Z,2.58
2024-01-24T21:29:43.770Z,3.17
2024-01-24T21:32:13.126Z,2.83
2024-01-24T21:34:41.442Z,3.30
2024-01-24T21:37:08.104Z,2.78
2024-01-24T21:39:34.792Z,2.60
2024-01-24T21:42:02.451Z,2.60
2024-01-24T21:44:28.949Z,3.30
2024-01-24T21:46:55.487Z,2.88
2024-01-24T21:49:22.080Z,2.92
2024-01-24T21:51:48.623Z,2.67
2024-01-24T21:54:16.694Z,3.13
2024-01-24T21:56:43.360Z,3.20
2024-01-24T21:59:10.281Z,3.17
2024-01-24T22:01:39.097Z,2.47
2024-01-24T22:04:05.911Z,2.67
2024-01-24T22:06:32.746Z,3.25
2024-01-24T22:08:59.499Z,2.97
2024-01-24T22:11:29.353Z,2.58
2024-01-24T22:13:56.220Z,3.03
2024-01-24T22:16:22.758Z,3.35
2024-01-24T22:18:51.137Z,3.30
2024-01-24T22:21:18.648Z,4.15
2024-01-24T22:23:45.433Z,5.68
2024-01-24T22:26:11.917Z,3.35
2024-01-24T22:28:38.462Z,2.78
2024-01-24T22:31:05.190Z,3.05
2024-01-24T22:33:37.751Z,2.65
2024-01-24T22:36:04.746Z,2.63
2024-01-24T22:38:31.413Z,2.35
2024-01-24T22:40:58.405Z,2.90
2024-01-24T22:43:25.413Z,2.65
2024-01-24T22:45:52.010Z,2.78
2024-01-24T22:48:19.092Z,3.67
2024-01-24T22:50:45.746Z,2.80
2024-01-24T22:53:14.362Z,2.60
2024-01-24T22:55:42.017Z,2.33
2024-01-24T22:58:08.564Z,2.97
2024-01-24T23:00:35.125Z,2.67
2024-01-24T23:03:05.651Z,2.75
2024-01-24T23:05:32.202Z,2.83
2024-01-24T23:07:59.333Z,2.70
2024-01-24T23:10:27.854Z,2.40
2024-01-24T23:12:54.695Z,2.30
2024-01-24T23:15:28.402Z,2.92
2024-01-24T23:17:54.996Z,2.40
2024-01-24T23:20:22.699Z,3.60
2024-01-24T23:22:49.260Z,2.92
2024-01-24T23:25:15.774Z,2.45
2024-01-24T23:27:42.373Z,3.42
2024-01-24T23:30:09.473Z,2.58
2024-01-24T23:32:37.012Z,3.33
2024-01-24T23:35:04.180Z,3.50
2024-01-24T23:37:31.932Z,2.80
2024-01-24T23:39:59.691Z,2.58
2024-01-24T23:42:26.206Z,3.00
2024-01-24T23:44:53.806Z,2.20
2024-01-24T23:47:20.271Z,2.65
2024-01-24T23:49:47.029Z,2.83
2024-01-24T23:52:13.925Z,3.50
2024-01-24T23:54:40.467Z,3.35
2024-01-24T23:57:07.072Z,3.17
2024-01-24T23:59:34.306Z,2.70
